Serious incident Airbus A330-323 N802NW, 12 Jan 2023
ASN logo
ASN Wikibase Occurrence # 305774
 
This information is added by users of ASN. Neither ASN nor the Flight Safety Foundation are responsible for the completeness or correctness of this information. If you feel this information is incomplete or incorrect, you can submit corrected information.

Date:12-JAN-2023
Time:07:53 LT
Type:Silhouette image of generic A333 model; specific model in this crash may look slightly different    
Airbus A330-323
Owner/operator:Delta Air Lines
Registration: N802NW
MSN: 533
Fatalities:Fatalities: 0 / Occupants:
Other fatalities:0
Aircraft damage: Unknown
Category:Serious incident
Location:Amsterdam-Schiphol International Airport (AMS/EHAM) -   Netherlands
Phase: Landing
Nature:Passenger - Scheduled
Departure airport:Detroit-Metropolitan Wayne County Airport, MI (DTW/KDTW)
Destination airport:Amsterdam-Schiphol International Airport (AMS/EHAM)
Confidence Rating: Information is only available from news, social media or unofficial sources
Narrative:
Delta Air Lines flight DL134, an Airbus A330-323, touched down 12 feet short of the threshold of runway 22 at Amsterdam-Schiphol International Airport (AMS).
The aircraft rolled out and vacated the runway via taxi G4, which is located 1270 m past the runway threshold.
Runway 22 has a Landing Distance Available (LDA) of 2020 m (6627 ft).

Weather about the time of the incident (07:53 LT/ 0653Z):
EHAM 120725Z 24027G39KT 9999 FEW009 SCT012 BKN016 11/10 Q1001 TEMPO 6000 -DZ BKN014
>> EHAM 120655Z 24027G38KT 6000 -DZ FEW007 SCT009 BKN011 11/10 Q1000 TEMPO 8000 BKN015
EHAM 120625Z 24028KT 210V270 5000 -DZRA FEW007 SCT008 BKN010 11/10 Q1000 TEMPO 8000

Sources:

https://nos.nl/artikel/2459572-vliegtuig-landt-voor-landingsbaan-op-schiphol
https://www.flightradar24.com/data/flights/dl134#2ed2c750
https://eaip.lvnl.nl/2023-01-12-AIRAC/graphics/eAIP/EH-AD-2.EHAM-AOC-04-22.pdf

Media:


Revision history:

Date/timeContributorUpdates
12-Jan-2023 13:40 harro Added
12-Jan-2023 13:42 harro Updated [Time, Narrative]
12-Jan-2023 13:54 harro Updated [Source, Narrative]
12-Jan-2023 22:53 Iceman 29 Updated [Embed code]

Corrections or additions? ... Edit this accident description

The Aviation Safety Network is an exclusive service provided by:
Quick Links:

CONNECT WITH US: FSF Facebook FSF Twitter FSF Youtube FSF LinkedIn FSF Instagram

©2023 Flight Safety Foundation

701 N. Fairfax St., Ste. 250
Alexandria, Virginia 22314
www.FlightSafety.org